Latest Weather Observations for Kingscote

IDS60801

Issued at 3:01 pm CST Sunday 20 August 2017 (issued every 30 minutes, with the page automatically refreshed every 10 minutes)

About weather observations | Map of weather stations | Latest weather observations for SA | Other Formats
Station Details ID: 022841 Name: KINGSCOTE AERO Lat: -35.71 Lon: 137.52 Height: 6.23 m
Data from the previous 72 hours. | See also: Recent months at Kingscote
Date/Time
CST
Temp
°C
App
Temp
°C
Dew
Point
°C
Rel
Hum
%
Delta-T
°C
Wind Press
QNH
hPa
Press
MSL
hPa
Rain since
9am
mm
Dir  Spd
km/h
Gust
km/h
Spd
kts
Gust
kts
20/03:00pm 11.4 8.0 7.5 77 1.9 NNE 15 24 8 13 1015.3 1015.3 0.4
20/02:30pm 11.9 7.4 7.0 72 2.3 NNE 20 28 11 15 1015.3 1015.3 0.0
20/02:00pm 12.5 7.0 6.1 65 3.0 NNE 24 35 13 19 1015.4 1015.4 0.0
20/01:30pm 12.9 7.4 6.0 63 3.3 NNE 24 33 13 18 1016.3 1016.3 0.0
20/01:00pm 12.6 6.1 6.6 67 2.9 NNE 30 43 16 23 1017.2 1017.2 0.0
20/12:49pm 12.5 6.0 6.3 66 2.9 NNE 30 50 16 27 1017.3 1017.3 0.0
20/12:30pm 12.6 6.5 6.6 67 2.9 NNE 28 41 15 22 1017.2 1017.2 0.0
20/12:00pm 13.0 6.1 6.4 64 3.1 NNE 32 44 17 24 1017.9 1017.9 0.0
20/11:30am 12.6 6.0 6.2 65 3.0 NNE 30 50 16 27 1019.3 1019.3 0.0
20/11:07am 12.9 5.8 5.6 61 3.4 NNE 32 50 17 27 1019.8 1019.8 0.0
20/11:00am 12.9 5.9 5.8 62 3.3 NNE 32 44 17 24 1019.9 1019.9 0.0
20/10:30am 13.1 7.4 6.7 65 3.1 NNE 26 37 14 20 1020.7 1020.7 0.0
20/10:00am 11.7 5.4 5.6 66 2.8 NNE 28 44 15 24 1021.2 1021.2 0.0
20/09:30am 11.9 6.0 6.0 67 2.8 NNE 26 41 14 22 1021.7 1021.7 0.0
20/09:00am 12.0 6.5 5.9 66 2.8 NNE 24 35 13 19 1022.1 1022.1 0.0
20/08:30am 11.4 6.7 5.9 69 2.5 NNE 20 35 11 19 1022.5 1022.5 0.0
20/08:00am 11.1 6.5 5.8 70 2.5 NNE 19 28 10 15 1022.9 1022.9 0.0
20/07:30am 10.7 6.5 5.7 71 2.3 NNE 17 22 9 12 1022.9 1022.9 0.0
20/07:00am 10.6 6.3 5.4 70 2.4 NNE 17 26 9 14 1022.9 1022.9 0.0
20/06:30am 10.4 6.6 6.0 74 2.0 NNE 15 26 8 14 1023.0 1023.0 0.0
20/06:00am 10.3 5.8 6.3 76 1.9 NNE 19 28 10 15 1022.7 1022.7 0.0
20/05:30am 9.0 5.3 7.8 92 0.6 NE 17 22 9 12 1022.8 1022.8 0.0
20/05:00am 5.1 1.4 4.7 97 0.2 NE 13 15 7 8 1022.9 1022.9 0.0
20/04:30am 3.1 1.5 2.5 96 0.2 CALM 0 0 0 0 1023.7 1023.7 0.0
20/04:00am 2.3 0.6 1.7 96 0.2 CALM 0 0 0 0 1024.1 1024.1 0.0
20/03:30am 2.2 0.5 1.6 96 0.2 CALM 0 0 0 0 1024.0 1024.0 0.0
20/03:00am 2.1 0.3 1.5 96 0.2 CALM 0 0 0 0 1024.3 1024.3 0.0
20/02:30am 2.3 0.6 1.7 96 0.2 CALM 0 0 0 0 1024.5 1024.5 0.0
20/02:00am 1.9 0.1 1.3 96 0.2 CALM 0 0 0 0 1025.3 1025.3 0.0
20/01:30am 1.6 -0.2 1.0 96 0.2 CALM 0 0 0 0 1025.4 1025.4 0.0
20/01:00am 2.3 0.6 1.7 96 0.2 CALM 0 0 0 0 1025.1 1025.1 0.0
20/12:30am 2.7 1.0 2.1 96 0.2 CALM 0 0 0 0 1025.6 1025.6 0.0
20/12:00am 3.0 1.4 2.3 95 0.3 CALM 0 0 0 0 1026.2 1026.2 0.0
 
Date/Time
CST
Temp
°C
App
Temp
°C
Dew
Point
°C
Rel
Hum
%
Delta-T
°C
Wind Press
QNH
hPa
Press
MSL
hPa
Rain since
9am
mm
Dir  Spd
km/h
Gust
km/h
Spd
kts
Gust
kts
19/11:30pm 3.1 1.5 2.4 95 0.3 CALM 0 0 0 0 1026.7 1026.7 0.0
19/11:00pm 3.3 0.6 2.4 94 0.4 WNW 6 7 3 4 1026.9 1026.9 0.0
19/10:30pm 4.1 1.9 3.2 94 0.4 WNW 4 7 2 4 1027.1 1027.1 0.0
19/10:00pm 4.3 1.7 3.4 94 0.4 WNW 6 7 3 4 1027.1 1027.1 0.0
19/09:30pm 4.4 1.8 3.2 92 0.5 WSW 6 7 3 4 1027.4 1027.4 0.0
19/09:00pm 5.0 3.6 3.8 92 0.5 CALM 0 0 0 0 1027.2 1027.2 0.0
19/08:30pm 5.6 4.3 4.2 91 0.6 CALM 0 0 0 0 1027.6 1027.6 0.0
19/08:00pm 6.3 5.1 4.8 90 0.7 CALM 0 0 0 0 1027.7 1027.7 0.0
19/07:30pm 7.3 6.3 5.4 88 0.8 CALM 0 0 0 0 1027.9 1027.9 0.0
19/07:00pm 7.6 5.5 5.6 87 0.9 SSE 6 7 3 4 1028.0 1028.0 0.0
19/06:30pm 8.9 8.0 6.0 82 1.3 CALM 0 0 0 0 1027.9 1027.9 0.0
19/06:00pm 10.7 8.7 6.3 74 2.0 N 6 7 3 4 1028.0 1028.0 0.0
19/05:30pm 11.4 9.3 6.5 72 2.3 N 7 9 4 5 1028.1 1028.1 0.0
19/05:00pm 12.1 8.8 6.6 69 2.6 NE 13 17 7 9 1027.8 1027.8 0.0
19/04:30pm 12.4 9.6 6.9 69 2.6 ENE 11 15 6 8 1027.6 1027.6 0.0
19/04:00pm 12.8 9.9 6.4 65 3.0 ENE 11 15 6 8 1027.7 1027.7 0.0
19/03:30pm 13.9 10.6 6.5 61 3.5 E 13 19 7 10 1027.5 1027.5 0.0
19/03:00pm 14.1 10.7 6.0 58 3.8 ENE 13 19 7 10 1027.5 1027.5 0.0
19/02:30pm 13.2 10.7 6.5 64 3.2 E 9 13 5 7 1027.8 1027.8 0.0
19/02:00pm 13.8 10.0 5.7 58 3.8 E 15 20 8 11 1028.0 1028.0 0.0
19/01:30pm 13.6 11.0 6.2 61 3.5 E 9 15 5 8 1028.3 1028.3 0.0
19/01:00pm 12.8 9.2 6.8 67 2.9 E 15 19 8 10 1028.7 1028.7 0.0
19/12:30pm 13.6 9.7 3.4 50 4.5 SSW 13 17 7 9 1029.1 1029.1 0.0
19/12:00pm 12.7 9.5 4.9 59 3.6 SSW 11 17 6 9 1029.5 1029.5 0.0
19/11:30am 13.5 10.5 5.9 60 3.6 S 11 17 6 9 1029.9 1029.9 0.0
19/11:00am 13.5 10.6 6.4 62 3.4 SSW 11 19 6 10 1030.0 1030.0 0.0
19/10:30am 12.8 10.4 6.8 67 2.9 S 9 13 5 7 1030.2 1030.2 0.0
19/10:00am 12.2 9.8 7.1 71 2.5 SSW 9 13 5 7 1030.3 1030.3 0.0
19/09:30am 10.9 10.3 7.4 79 1.7 CALM 0 0 0 0 1030.4 1030.4 0.0
19/09:00am 8.9 8.1 6.3 84 1.2 CALM 0 0 0 0 1030.4 1030.4 0.2
19/08:30am 6.5 5.5 5.6 94 0.4 CALM 0 0 0 0 1030.1 1030.1 0.2
19/08:00am 5.4 4.2 4.7 95 0.3 CALM 0 0 0 0 1029.9 1029.9 0.2
19/07:30am 4.3 1.2 3.7 96 0.2 WSW 9 11 5 6 1029.5 1029.5 0.2
19/07:00am 2.0 -0.2 1.1 94 0.3 ESE 2 9 1 5 1029.1 1029.1 0.2
19/06:30am 3.3 0.4 2.6 95 0.3 NW 7 11 4 6 1028.6 1028.6 0.2
19/06:00am 2.8 -0.2 2.1 95 0.3 SW 7 11 4 6 1028.5 1028.5 0.2
19/05:30am 3.3 1.7 2.7 96 0.2 CALM 0 0 0 0 1028.0 1028.0 0.2
19/05:00am 3.1 1.5 2.4 95 0.3 CALM 0 0 0 0 1028.0 1028.0 0.2
19/04:30am 3.1 1.5 2.4 95 0.3 CALM 0 0 0 0 1027.7 1027.7 0.2
19/04:00am 3.2 1.6 2.5 95 0.3 CALM 0 0 0 0 1027.4 1027.4 0.2
19/03:30am 2.9 1.2 2.0 94 0.3 CALM 0 0 0 0 1027.3 1027.3 0.2
19/03:00am 3.0 1.3 2.0 93 0.4 CALM 0 0 0 0 1027.2 1027.2 0.2
19/02:30am 4.3 2.9 3.4 94 0.4 CALM 0 0 0 0 1027.2 1027.2 0.2
19/02:00am 3.8 2.3 2.8 93 0.4 CALM 0 0 0 0 1027.4 1027.4 0.2
19/01:30am 4.4 3.0 3.4 93 0.4 CALM 0 0 0 0 1027.4 1027.4 0.2
19/01:00am 3.7 2.1 2.5 92 0.5 CALM 0 0 0 0 1027.4 1027.4 0.2
19/12:30am 4.2 2.7 3.0 92 0.5 CALM 0 0 0 0 1027.2 1027.2 0.2
19/12:00am 5.2 3.5 4.0 92 0.5 WNW 2 6 1 3 1027.3 1027.3 0.2
 
Date/Time
CST
Temp
°C
App
Temp
°C
Dew
Point
°C
Rel
Hum
%
Delta-T
°C
Wind Press
QNH
hPa
Press
MSL
hPa
Rain since
9am
mm
Dir  Spd
km/h
Gust
km/h
Spd
kts
Gust
kts
18/11:30pm 5.1 2.1 4.1 93 0.4 W 9 11 5 6 1027.2 1027.2 0.2
18/11:00pm 5.0 1.9 3.8 92 0.5 W 9 11 5 6 1027.1 1027.1 0.2
18/10:30pm 5.4 4.1 4.1 91 0.5 CALM 0 9 0 5 1027.1 1027.1 0.2
18/10:00pm 6.4 3.9 4.7 89 0.7 WNW 7 9 4 5 1027.2 1027.2 0.2
18/09:30pm 7.0 4.2 5.0 87 0.9 W 9 13 5 7 1027.0 1027.0 0.2
18/09:00pm 8.0 4.7 6.5 90 0.7 W 13 19 7 10 1026.7 1026.7 0.2
18/08:30pm 7.5 4.0 5.6 88 0.8 WNW 13 15 7 8 1026.5 1026.5 0.2
18/08:00pm 8.2 4.7 5.5 83 1.2 WNW 13 15 7 8 1026.3 1026.3 0.2
18/07:30pm 8.8 5.4 6.1 83 1.2 W 13 17 7 9 1026.1 1026.1 0.2
18/07:00pm 8.6 5.1 5.5 81 1.4 W 13 15 7 8 1025.8 1025.8 0.2
18/06:30pm 9.6 5.8 5.8 77 1.7 WSW 15 19 8 10 1025.5 1025.5 0.2
18/06:00pm 10.8 6.3 6.2 73 2.1 WSW 19 24 10 13 1025.3 1025.3 0.2
18/05:30pm 11.6 6.1 5.9 68 2.6 SW 24 41 13 22 1024.8 1024.8 0.2
18/05:00pm 11.5 6.4 5.8 68 2.6 SW 22 30 12 16 1024.3 1024.3 0.2
18/04:30pm 12.8 6.5 5.9 63 3.2 SW 28 37 15 20 1023.9 1023.9 0.2
18/04:00pm 12.8 6.0 5.2 60 3.5 SW 30 43 16 23 1023.7 1023.7 0.2
18/03:30pm 13.0 6.1 6.6 65 3.0 SW 32 50 17 27 1023.7 1023.7 0.2
18/03:00pm 13.6 6.9 5.5 58 3.8 SW 30 43 16 23 1023.2 1023.2 0.2
18/02:30pm 14.6 8.0 5.9 56 4.1 SW 30 41 16 22 1022.9 1022.9 0.2
18/02:00pm 14.2 7.2 6.1 58 3.9 SW 32 41 17 22 1022.9 1022.9 0.2
18/01:30pm 14.5 7.6 4.5 51 4.6 WSW 30 44 16 24 1022.7 1022.7 0.2
18/01:00pm 13.6 7.1 6.5 62 3.4 SW 30 41 16 22 1022.9 1022.9 0.2
18/12:30pm 14.1 7.1 6.9 62 3.5 WSW 33 52 18 28 1022.8 1022.8 0.2
18/12:00pm 10.9 3.8 6.6 75 2.0 WSW 33 54 18 29 1023.1 1023.1 0.2
18/11:30am 10.4 3.5 6.4 76 1.9 WSW 32 54 17 29 1023.2 1023.2 0.2
18/11:19am 12.4 4.4 5.6 63 3.2 SW 37 65 20 35 1022.9 1022.9 0.2
18/11:00am 13.4 6.9 6.7 64 3.2 SW 30 39 16 21 1022.7 1022.7 0.2
18/10:30am 11.6 5.9 6.9 73 2.2 WSW 26 35 14 19 1022.6 1022.6 0.2
18/10:01am 11.2 4.2 5.9 70 2.5 SW 32 59 17 32 1022.3 1022.3 0.0
18/10:00am 11.8 4.8 6.1 68 2.7 SW 32 46 17 25 1022.3 1022.3 0.0
18/09:30am 11.7 6.7 6.4 70 2.5 W 22 32 12 17 1021.6 1021.6 0.0
18/09:00am 10.3 4.5 6.1 75 1.9 WSW 26 35 14 19 1021.4 1021.4 3.6
18/08:46am 8.8 1.7 5.4 79 1.5 SW 32 50 17 27 1021.3 1021.3 3.6
18/08:38am 10.4 4.5 5.8 73 2.1 WSW 26 44 14 24 1021.2 1021.2 3.6
18/08:30am 10.3 6.1 5.7 73 2.1 WSW 17 24 9 13 1020.8 1020.8 3.6
18/08:00am 8.5 3.2 4.9 78 1.6 WSW 22 32 12 17 1020.2 1020.2 3.6
18/07:30am 7.7 3.2 4.3 79 1.5 W 17 22 9 12 1019.6 1019.6 3.6
18/07:00am 7.3 2.8 4.3 81 1.3 W 17 24 9 13 1019.1 1019.1 3.6
18/06:30am 7.7 2.7 4.8 82 1.3 W 20 26 11 14 1018.7 1018.7 3.6
18/06:00am 7.1 3.0 4.4 83 1.2 WNW 15 19 8 10 1018.2 1018.2 3.6
18/05:30am 8.0 3.0 4.4 78 1.6 WSW 20 32 11 17 1017.6 1017.6 3.6
18/05:00am 7.5 2.4 4.1 79 1.5 WSW 20 26 11 14 1017.2 1017.2 3.6
18/04:30am 7.4 2.6 4.7 83 1.2 W 19 28 10 15 1016.9 1016.9 3.6
18/04:00am 7.5 2.7 4.5 81 1.3 W 19 28 10 15 1016.4 1016.4 3.6
18/03:30am 8.1 1.6 4.7 79 1.5 W 28 46 15 25 1016.1 1016.1 3.6
18/03:00am 7.9 2.5 4.3 78 1.6 W 22 26 12 14 1015.8 1015.8 3.6
18/02:30am 7.8 2.8 4.6 80 1.4 W 20 30 11 16 1015.7 1015.7 3.6
18/02:00am 8.5 1.9 4.3 75 1.8 W 28 39 15 21 1015.2 1015.2 3.6
18/01:30am 8.3 2.4 3.9 74 1.9 W 24 32 13 17 1015.2 1015.2 3.6
18/01:00am 8.2 2.7 4.0 75 1.8 W 22 30 12 16 1014.8 1014.8 3.6
18/12:30am 8.1 3.2 5.0 81 1.4 W 20 28 11 15 1014.3 1014.3 3.6
18/12:00am 8.0 3.1 5.1 82 1.3 W 20 26 11 14 1014.0 1014.0 3.6
 
Date/Time
CST
Temp
°C
App
Temp
°C
Dew
Point
°C
Rel
Hum
%
Delta-T
°C
Wind Press
QNH
hPa
Press
MSL
hPa
Rain since
9am
mm
Dir  Spd
km/h
Gust
km/h
Spd
kts
Gust
kts
17/11:30pm 8.2 3.3 5.3 82 1.3 W 20 28 11 15 1013.8 1013.8 3.6
17/11:00pm 8.3 4.1 5.6 83 1.2 WSW 17 20 9 11 1013.9 1013.9 3.4
17/10:30pm 8.8 2.4 5.2 78 1.6 W 28 41 15 22 1012.8 1012.8 3.4
17/10:00pm 9.0 2.6 5.0 76 1.8 W 28 37 15 20 1012.6 1012.6 3.4
17/09:49pm 9.0 2.1 4.8 75 1.9 W 30 48 16 26 1012.2 1012.2 3.4
17/09:30pm 9.1 2.9 4.5 73 2.0 W 26 37 14 20 1012.6 1012.6 3.4
17/09:00pm 8.7 2.2 4.7 76 1.8 W 28 39 15 21 1012.1 1012.1 3.4
17/08:33pm 9.3 2.5 4.9 74 2.0 W 30 67 16 36 1011.7 1011.7 3.4
17/08:32pm 9.4 3.0 5.0 74 2.0 W 28 46 15 25 1011.6 1011.6 3.4
17/08:30pm 9.2 3.2 5.2 76 1.8 W 26 46 14 25 1011.5 1011.5 3.4
17/08:00pm 8.1 3.5 5.4 83 1.2 W 19 24 10 13 1011.0 1011.0 3.4
17/07:30pm 8.2 3.4 5.7 84 1.1 W 20 32 11 17 1010.7 1010.7 3.4
17/07:00pm 9.1 4.0 5.8 80 1.5 WSW 22 33 12 18 1010.7 1010.7 3.2
17/06:30pm 8.6 3.0 5.5 81 1.4 W 24 32 13 17 1009.7 1009.7 3.2
17/06:00pm 8.2 2.6 5.3 82 1.3 W 24 33 13 18 1009.3 1009.3 3.2
17/05:52pm 8.3 1.6 5.4 82 1.3 W 30 48 16 26 1009.2 1009.2 3.2
17/05:30pm 9.1 3.8 6.7 85 1.1 W 24 43 13 23 1009.3 1009.3 2.8
17/05:00pm 8.9 2.1 6.7 86 1.0 WSW 32 46 17 25 1008.6 1008.6 2.2
17/04:30pm 11.5 1.9 4.3 61 3.2 W 44 65 24 35 1007.7 1007.7 1.6
17/04:29pm 12.0 2.5 5.0 62 3.2 W 44 63 24 34 1007.8 1007.8 1.6
17/04:21pm 13.1 3.8 5.0 58 3.7 W 43 63 23 34 1007.2 1007.2 1.6
17/04:00pm 13.6 4.2 4.7 55 4.1 W 43 59 23 32 1007.0 1007.0 1.6
17/03:30pm 13.6 4.0 4.5 54 4.2 W 44 69 24 37 1006.7 1006.7 1.6

Other Formats:

Comma delimited format used in spreadsheet applications
http://www.bom.gov.au/fwo/IDS60801/IDS60801.95807.axf

JavaScript Object Notation format (JSON) in row-major order
http://www.bom.gov.au/fwo/IDS60801/IDS60801.95807.json